Kansas City, Missouri
Current Conditions -  °F | °C
As of 9:40 PM on Friday 19 Dec 2014 (Local Time) from KMKC Reporting Station
Haze Haze  
Wind Chill:   Ceiling: 400
Heat Index:   Visibility: 2mi
Dew Point:   Wind: 0mph
Humidity: 92%   Direction: NA
Pressure: 30.21"   Gusts: NA
Location:  39.1°N, 94.58°W
Report Text: KMKC 200340Z 00000KT 2SM BR OVC004 02/01 A3021 RMK AO2 T00170006
Loading
Personal Weather Stations






























Interactive Weather Map New forecast layout! Learn more

10-Day Weather Forecast

Advertisements
Track Severe Weather on mobile